createdAt,value
2022-07-29T00:02:23.687Z,99856.91
2022-07-29T00:04:53.922Z,99855.44
2022-07-29T00:07:24.370Z,99855.41
2022-07-29T00:09:54.854Z,99848.97
2022-07-29T00:12:27.002Z,99846.09
2022-07-29T00:15:00.878Z,99855.41
2022-07-29T00:17:30.918Z,99855.59
2022-07-29T00:20:01.069Z,99852.69
2022-07-29T00:22:31.162Z,99842.28
2022-07-29T00:25:01.378Z,99852.25
2022-07-29T00:27:31.524Z,99851.41
2022-07-29T00:30:04.540Z,99853.91
2022-07-29T00:32:34.903Z,99857.44
2022-07-29T00:35:17.416Z,99858.69
2022-07-29T00:37:48.013Z,99854.34
2022-07-29T00:40:18.396Z,99848.72
2022-07-29T00:42:55.666Z,99852.22
2022-07-29T00:45:28.361Z,99848.91
2022-07-29T00:47:58.500Z,99847.25
2022-07-29T00:50:28.775Z,99845.59
2022-07-29T00:52:59.132Z,99845.59
2022-07-29T00:55:29.470Z,99843.53
2022-07-29T00:58:01.585Z,99842.09
2022-07-29T01:00:37.765Z,99845.63
2022-07-29T01:03:08.126Z,99832.00
2022-07-29T01:05:50.788Z,99838.63
2022-07-29T01:08:24.115Z,99834.09
2022-07-29T01:10:55.083Z,99834.50
2022-07-29T01:13:26.763Z,99840.72
2022-07-29T01:16:07.403Z,99835.75
2022-07-29T01:18:41.760Z,99834.72
2022-07-29T01:21:31.507Z,99829.13
2022-07-29T01:24:19.565Z,99830.59
2022-07-29T01:26:52.086Z,99831.22
2022-07-29T01:29:38.493Z,99836.59
2022-07-29T01:32:27.694Z,99823.56
2022-07-29T01:35:07.313Z,99827.06
2022-07-29T01:37:43.651Z,99825.41
2022-07-29T01:40:20.937Z,99827.69
2022-07-29T01:42:56.253Z,99835.97
2022-07-29T01:45:35.792Z,99830.59
2022-07-29T01:48:10.939Z,99829.97
2022-07-29T01:50:48.221Z,99824.16
2022-07-29T01:53:24.578Z,99822.50
2022-07-29T01:55:56.804Z,99812.81
2022-07-29T01:58:31.067Z,99818.78
2022-07-29T02:01:05.640Z,99817.56
2022-07-29T02:03:36.853Z,99817.13
2022-07-29T02:06:10.889Z,99818.75
2022-07-29T02:08:42.658Z,99811.69
2022-07-29T02:11:13.146Z,99818.94
2022-07-29T02:13:45.082Z,99819.75
2022-07-29T02:16:21.592Z,99803.41
2022-07-29T02:18:54.397Z,99806.31
2022-07-29T02:21:29.185Z,99805.03
2022-07-29T02:24:03.361Z,99803.56
2022-07-29T02:26:36.379Z,99805.00
2022-07-29T02:29:06.610Z,99814.94
2022-07-29T02:31:40.876Z,99822.16
2022-07-29T02:34:13.804Z,99802.25
2022-07-29T02:36:49.914Z,99824.84
2022-07-29T02:39:21.160Z,99822.53
2022-07-29T02:41:53.002Z,99823.13
2022-07-29T02:44:25.394Z,99819.16
2022-07-29T02:47:08.196Z,99829.47
2022-07-29T02:49:41.163Z,99822.41
2022-07-29T02:52:16.511Z,99826.13
2022-07-29T02:54:54.530Z,99821.56
2022-07-29T02:57:27.575Z,99821.13
2022-07-29T03:00:04.272Z,99821.72
2022-07-29T03:02:41.854Z,99820.63
2022-07-29T03:05:16.935Z,99821.03
2022-07-29T03:07:51.390Z,99824.53
2022-07-29T03:10:23.127Z,99819.78
2022-07-29T03:12:54.256Z,99826.19
2022-07-29T03:15:28.462Z,99819.16
2022-07-29T03:18:04.732Z,99819.78
2022-07-29T03:20:34.939Z,99813.16
2022-07-29T03:23:05.550Z,99820.00
2022-07-29T03:25:35.735Z,99818.38
2022-07-29T03:28:06.036Z,99816.56
2022-07-29T03:30:36.277Z,99815.16
2022-07-29T03:33:13.430Z,99817.84
2022-07-29T03:35:44.363Z,99812.72
2022-07-29T03:38:14.656Z,99814.81
2022-07-29T03:40:50.553Z,99818.56
2022-07-29T03:43:22.497Z,99816.94
2022-07-29T03:45:55.724Z,99822.16
2022-07-29T03:48:30.535Z,99824.88
2022-07-29T03:51:00.985Z,99821.19
2022-07-29T03:53:31.278Z,99826.78
2022-07-29T03:56:05.879Z,99826.22
2022-07-29T03:58:36.790Z,99828.09
2022-07-29T04:01:07.173Z,99830.81
2022-07-29T04:03:40.623Z,99830.22
2022-07-29T04:06:11.202Z,99838.31
2022-07-29T04:08:42.002Z,99833.78
2022-07-29T04:11:12.317Z,99815.97
2022-07-29T04:13:42.634Z,99826.72
2022-07-29T04:16:12.785Z,99819.50
2022-07-29T04:18:46.193Z,99816.81
2022-07-29T04:21:16.292Z,99817.41
2022-07-29T04:23:53.280Z,99819.06
2022-07-29T04:26:24.716Z,99813.88
2022-07-29T04:28:54.872Z,99820.50
2022-07-29T04:31:25.963Z,99816.91
2022-07-29T04:33:58.910Z,99823.25
2022-07-29T04:36:30.093Z,99817.59
2022-07-29T04:39:00.424Z,99825.72
2022-07-29T04:41:32.974Z,99823.06
2022-07-29T04:44:07.122Z,99814.31
2022-07-29T04:46:37.731Z,99822.00
2022-07-29T04:49:10.819Z,99828.88
2022-07-29T04:51:40.979Z,99820.22
2022-07-29T04:54:11.175Z,99818.22
2022-07-29T04:56:41.287Z,99816.34
2022-07-29T04:59:14.206Z,99823.19
2022-07-29T05:01:44.474Z,99825.34
2022-07-29T05:04:17.618Z,99825.78
2022-07-29T05:06:47.777Z,99823.28
2022-07-29T05:09:18.546Z,99832.00
2022-07-29T05:11:48.666Z,99831.53
2022-07-29T05:14:19.063Z,99827.66
2022-07-29T05:16:52.159Z,99839.75
2022-07-29T05:19:24.910Z,99840.78
2022-07-29T05:21:55.099Z,99835.53
2022-07-29T05:24:25.298Z,99841.81
2022-07-29T05:27:00.794Z,99848.22
2022-07-29T05:29:44.127Z,99837.44
2022-07-29T05:32:15.451Z,99842.00
2022-07-29T05:34:51.439Z,99841.56
2022-07-29T05:37:22.839Z,99834.66
2022-07-29T05:39:56.963Z,99835.16
2022-07-29T05:42:27.800Z,99843.19
2022-07-29T05:44:58.117Z,99832.88
2022-07-29T05:47:28.521Z,99835.66
2022-07-29T05:50:01.482Z,99828.31
2022-07-29T05:52:31.717Z,99819.94
2022-07-29T05:55:05.469Z,99822.72
2022-07-29T05:57:36.178Z,99830.91
2022-07-29T06:00:07.868Z,99822.75
2022-07-29T06:02:39.225Z,99828.91
2022-07-29T06:05:16.302Z,99825.78
2022-07-29T06:07:50.130Z,99821.34
2022-07-29T06:10:23.943Z,99826.97
2022-07-29T06:12:57.765Z,99829.09
2022-07-29T06:15:27.833Z,99829.72
2022-07-29T06:18:00.050Z,99834.09
2022-07-29T06:20:34.254Z,99832.13
2022-07-29T06:23:06.852Z,99839.84
2022-07-29T06:25:37.875Z,99834.19
2022-07-29T06:28:08.334Z,99843.63
2022-07-29T06:30:38.702Z,99839.50
2022-07-29T06:33:09.512Z,99841.00
2022-07-29T06:35:51.612Z,99837.00
2022-07-29T06:38:30.897Z,99839.09
2022-07-29T06:41:04.999Z,99841.81
2022-07-29T06:43:51.865Z,99844.22
2022-07-29T06:46:24.252Z,99855.63
2022-07-29T06:48:55.850Z,99857.50
2022-07-29T06:51:28.647Z,99850.25
2022-07-29T06:54:02.476Z,99850.13
2022-07-29T06:56:38.873Z,99846.06
2022-07-29T06:59:10.586Z,99847.56
2022-07-29T07:01:41.519Z,99844.91
2022-07-29T07:04:12.645Z,99835.63
2022-07-29T07:06:45.529Z,99842.72
2022-07-29T07:09:15.870Z,99841.06
2022-07-29T07:11:46.255Z,99847.91
2022-07-29T07:14:20.535Z,99856.03
2022-07-29T07:16:52.710Z,99855.84
2022-07-29T07:19:24.885Z,99850.09
2022-07-29T07:21:57.638Z,99859.59
2022-07-29T07:24:27.921Z,99843.50
2022-07-29T07:26:58.135Z,99842.19
2022-07-29T07:29:28.430Z,99831.03
2022-07-29T07:32:00.980Z,99840.22
2022-07-29T07:34:31.589Z,99846.56
2022-07-29T07:37:04.543Z,99843.59
2022-07-29T07:39:36.847Z,99847.75
2022-07-29T07:42:07.203Z,99841.44
2022-07-29T07:44:57.320Z,99842.22
2022-07-29T07:47:28.094Z,99841.16
2022-07-29T07:49:58.935Z,99845.25
2022-07-29T07:52:31.794Z,99850.66
2022-07-29T07:55:02.221Z,99844.88
2022-07-29T07:57:32.752Z,99847.03
2022-07-29T08:00:02.838Z,99850.56
2022-07-29T08:02:34.178Z,99841.09
2022-07-29T08:05:04.452Z,99842.78
2022-07-29T08:07:37.186Z,99844.91
2022-07-29T08:10:08.562Z,99841.97
2022-07-29T08:12:38.815Z,99852.56
2022-07-29T08:15:11.138Z,99848.25
2022-07-29T08:17:42.483Z,99850.41
2022-07-29T08:20:14.318Z,99835.00
2022-07-29T08:22:47.052Z,99842.78
2022-07-29T08:25:19.078Z,99846.59
2022-07-29T08:27:49.195Z,99839.31
2022-07-29T08:30:19.580Z,99838.81
2022-07-29T08:32:55.099Z,99835.34
2022-07-29T08:35:27.934Z,99840.91
2022-07-29T08:38:04.558Z,99848.59
2022-07-29T08:40:34.711Z,99833.13
2022-07-29T08:43:09.757Z,99835.28
2022-07-29T08:45:48.503Z,99837.44
2022-07-29T08:48:23.936Z,99839.09
2022-07-29T08:50:59.295Z,99833.31
2022-07-29T08:53:32.955Z,99829.69
2022-07-29T08:56:07.452Z,99831.13
2022-07-29T08:58:38.593Z,99836.97
2022-07-29T09:01:12.333Z,99831.75
2022-07-29T09:03:43.574Z,99824.94
2022-07-29T09:06:17.584Z,99828.75
2022-07-29T09:08:50.750Z,99833.72
2022-07-29T09:11:21.176Z,99830.41
2022-07-29T09:13:51.249Z,99813.91
2022-07-29T09:16:43.862Z,99828.44
2022-07-29T09:19:23.826Z,99817.44
2022-07-29T09:22:04.085Z,99821.09
2022-07-29T09:24:44.531Z,99825.09
2022-07-29T09:27:23.701Z,99812.56
2022-07-29T09:30:02.921Z,99815.84
2022-07-29T09:32:34.145Z,99814.06
2022-07-29T09:35:23.806Z,99818.97
2022-07-29T09:37:55.118Z,99817.91
2022-07-29T09:40:30.840Z,99822.56
2022-07-29T09:43:01.170Z,99807.00
2022-07-29T09:45:33.357Z,99805.94
2022-07-29T09:48:16.557Z,99806.72
2022-07-29T09:50:50.681Z,99800.19
2022-07-29T09:53:36.879Z,99801.28
2022-07-29T09:56:11.763Z,99799.00
2022-07-29T09:58:41.972Z,99793.25
2022-07-29T10:01:12.548Z,99789.91
2022-07-29T10:03:55.723Z,99785.97
2022-07-29T10:06:25.866Z,99783.47
2022-07-29T10:08:56.267Z,99783.81
2022-07-29T10:11:48.351Z,99793.50
2022-07-29T10:14:19.432Z,99785.28
2022-07-29T10:16:49.573Z,99777.66
2022-07-29T10:19:20.830Z,99782.13
2022-07-29T10:21:55.071Z,99785.69
2022-07-29T10:24:30.364Z,99773.44
2022-07-29T10:27:04.712Z,99774.47
2022-07-29T10:29:36.919Z,99772.38
2022-07-29T10:32:33.745Z,99765.69
2022-07-29T10:35:23.750Z,99768.81
2022-07-29T10:38:16.245Z,99768.78
2022-07-29T10:41:09.295Z,99768.34
2022-07-29T10:43:47.495Z,99769.41
2022-07-29T10:46:22.177Z,99770.28
2022-07-29T10:49:11.923Z,99767.03
2022-07-29T10:52:08.342Z,99766.66
2022-07-29T10:54:51.754Z,99765.16
2022-07-29T10:57:53.139Z,99767.91
2022-07-29T11:00:35.810Z,99754.91
2022-07-29T11:03:10.476Z,99752.69
2022-07-29T11:06:01.959Z,99757.25
2022-07-29T11:08:43.189Z,99748.44
2022-07-29T11:11:37.994Z,99742.19
2022-07-29T11:14:10.376Z,99742.34
2022-07-29T11:17:06.936Z,99742.03
2022-07-29T11:19:44.775Z,99746.16
2022-07-29T11:22:36.245Z,99734.78
2022-07-29T11:25:50.156Z,99721.94
2022-07-29T11:31:09.333Z,99716.22
2022-07-29T11:33:56.083Z,99714.16
2022-07-29T11:39:36.222Z,99710.31
2022-07-29T11:42:37.417Z,99717.31
2022-07-29T11:45:41.259Z,99695.59
2022-07-29T11:48:29.607Z,99708.06
2022-07-29T11:51:01.179Z,99702.19
2022-07-29T11:53:32.701Z,99701.53
2022-07-29T11:56:04.847Z,99709.53
2022-07-29T11:58:35.540Z,99700.25
2022-07-29T12:01:08.968Z,99699.69
2022-07-29T12:03:39.330Z,99707.84
2022-07-29T12:06:18.643Z,99703.28
2022-07-29T12:07:01.386Z,99725.94
2022-07-29T12:08:51.464Z,99704.84
2022-07-29T12:11:23.531Z,99692.56
2022-07-29T12:13:55.274Z,99688.19
2022-07-29T12:16:29.704Z,99691.72
2022-07-29T12:19:02.294Z,99685.31
2022-07-29T12:21:53.611Z,99679.59
2022-07-29T12:24:27.712Z,99680.84
2022-07-29T12:26:59.329Z,99679.84
2022-07-29T12:29:34.760Z,99680.72
2022-07-29T12:32:14.429Z,99679.19
2022-07-29T12:34:45.494Z,99680.47
2022-07-29T12:37:18.626Z,99666.91
2022-07-29T12:39:49.262Z,99677.47
2022-07-29T12:42:19.875Z,99671.94
2022-07-29T12:44:52.769Z,99668.59
2022-07-29T12:47:23.188Z,99663.84
2022-07-29T12:50:12.159Z,99659.59
2022-07-29T12:52:45.067Z,99656.59
2022-07-29T12:55:15.699Z,99655.00
2022-07-29T12:57:51.718Z,99654.22
2022-07-29T13:00:27.270Z,99647.38
2022-07-29T13:02:59.946Z,99640.28
2022-07-29T13:05:48.876Z,99640.34
2022-07-29T13:08:22.750Z,99638.34
2022-07-29T13:10:53.262Z,99635.59
2022-07-29T13:13:23.422Z,99638.06
2022-07-29T13:16:10.155Z,99628.69
2022-07-29T13:18:42.360Z,99628.03
2022-07-29T13:21:16.958Z,99632.00
2022-07-29T13:23:51.720Z,99634.31
2022-07-29T13:26:21.788Z,99629.88
2022-07-29T13:28:52.081Z,99627.44
2022-07-29T13:31:23.188Z,99618.31
2022-07-29T13:33:53.521Z,99615.59
2022-07-29T13:36:24.722Z,99609.91
2022-07-29T13:38:57.540Z,99607.56
2022-07-29T13:41:27.842Z,99603.09
2022-07-29T13:44:06.200Z,99603.25
2022-07-29T13:46:39.613Z,99611.59
2022-07-29T13:49:11.774Z,99611.25
2022-07-29T13:51:42.283Z,99609.50
2022-07-29T13:54:15.030Z,99602.16
2022-07-29T13:56:46.293Z,99597.72
2022-07-29T13:59:16.822Z,99595.78
2022-07-29T14:01:47.318Z,99596.75
2022-07-29T14:04:17.535Z,99599.34
2022-07-29T14:06:47.878Z,99592.94
2022-07-29T14:09:22.661Z,99592.00
2022-07-29T14:11:53.953Z,99581.56
2022-07-29T14:14:24.674Z,99581.25
2022-07-29T14:16:54.869Z,99573.34
2022-07-29T14:19:25.149Z,99576.66
2022-07-29T14:21:55.546Z,99576.47
2022-07-29T14:24:32.370Z,99579.63
2022-07-29T14:27:02.744Z,99578.28
2022-07-29T14:29:36.974Z,99586.50
2022-07-29T14:32:10.135Z,99579.44
2022-07-29T14:34:41.270Z,99569.03
2022-07-29T14:37:16.094Z,99562.44
2022-07-29T14:39:49.384Z,99567.66
2022-07-29T14:42:19.572Z,99560.16
2022-07-29T14:44:50.434Z,99558.56
2022-07-29T14:47:20.657Z,99565.38
2022-07-29T14:49:50.949Z,99557.53
2022-07-29T14:52:21.124Z,99554.13
2022-07-29T14:54:53.829Z,99550.94
2022-07-29T14:57:24.037Z,99547.00
2022-07-29T14:59:55.299Z,99549.53
2022-07-29T15:02:40.003Z,99544.72
2022-07-29T15:05:16.144Z,99538.28
2022-07-29T15:07:46.438Z,99537.78
2022-07-29T15:10:19.530Z,99534.22
2022-07-29T15:12:51.063Z,99535.03
2022-07-29T15:15:21.213Z,99529.84
2022-07-29T15:17:51.920Z,99530.28
2022-07-29T15:20:22.560Z,99533.50
2022-07-29T15:22:52.680Z,99540.16
2022-07-29T15:25:25.533Z,99517.78
2022-07-29T15:28:01.734Z,99519.66
2022-07-29T15:30:34.623Z,99511.22
2022-07-29T15:33:06.121Z,99510.84
2022-07-29T15:35:40.527Z,99506.88
2022-07-29T15:38:11.670Z,99501.78
2022-07-29T15:40:45.526Z,99506.06
2022-07-29T15:43:15.700Z,99519.63
2022-07-29T15:46:08.140Z,99507.38
2022-07-29T15:48:42.288Z,99504.88
2022-07-29T15:51:12.525Z,99500.66
2022-07-29T15:53:42.675Z,99497.56
2022-07-29T15:56:15.453Z,99498.56
2022-07-29T15:58:45.636Z,99496.69
2022-07-29T16:01:15.932Z,99493.72
2022-07-29T16:03:48.974Z,99492.75
2022-07-29T16:06:19.453Z,99499.66
2022-07-29T16:08:49.830Z,99496.31
2022-07-29T16:11:23.104Z,99492.78
2022-07-29T16:13:53.239Z,99490.63
2022-07-29T16:16:23.727Z,99505.50
2022-07-29T16:18:54.250Z,99495.16
2022-07-29T16:21:27.571Z,99506.16
2022-07-29T16:23:58.371Z,99498.25
2022-07-29T16:26:31.251Z,99507.38
2022-07-29T16:29:02.279Z,99509.28
2022-07-29T16:31:32.590Z,99505.56
2022-07-29T16:34:03.841Z,99512.41
2022-07-29T16:36:36.031Z,99510.22
2022-07-29T16:39:07.133Z,99511.06
2022-07-29T16:41:39.923Z,99522.34
2022-07-29T16:44:09.995Z,99518.22
2022-07-29T16:46:41.424Z,99523.97
2022-07-29T16:49:11.767Z,99515.81
2022-07-29T16:51:45.260Z,99513.94
2022-07-29T16:54:15.536Z,99516.72
2022-07-29T16:56:48.291Z,99515.63
2022-07-29T16:59:18.612Z,99517.28
2022-07-29T17:01:48.869Z,99514.41
2022-07-29T17:04:19.102Z,99513.38
2022-07-29T17:06:49.804Z,99514.78
2022-07-29T17:09:21.146Z,99507.44
2022-07-29T17:11:56.150Z,99514.34
2022-07-29T17:14:27.844Z,99521.44
2022-07-29T17:17:01.099Z,99506.75
2022-07-29T17:19:34.160Z,99516.06
2022-07-29T17:22:11.788Z,99519.63
2022-07-29T17:24:45.909Z,99509.03
2022-07-29T17:27:19.023Z,99515.81
2022-07-29T17:29:49.141Z,99512.84
2022-07-29T17:32:19.465Z,99516.69
2022-07-29T17:34:49.621Z,99521.84
2022-07-29T17:37:19.810Z,99519.94
2022-07-29T17:39:50.942Z,99513.69
2022-07-29T17:42:23.774Z,99523.22
2022-07-29T17:44:53.990Z,99518.56
2022-07-29T17:47:24.115Z,99515.81
2022-07-29T17:49:54.224Z,99522.63
2022-07-29T17:52:24.385Z,99519.56
2022-07-29T17:54:54.583Z,99522.22
2022-07-29T17:57:27.525Z,99525.19
2022-07-29T17:59:57.644Z,99523.78
2022-07-29T18:02:28.496Z,99525.88
2022-07-29T18:04:58.793Z,99530.75
2022-07-29T18:07:28.968Z,99522.19
2022-07-29T18:10:00.743Z,99520.19
2022-07-29T18:12:33.817Z,99526.38
2022-07-29T18:15:03.905Z,99531.47
2022-07-29T18:17:48.437Z,99533.53
2022-07-29T18:20:24.391Z,99530.66
2022-07-29T18:22:54.622Z,99538.69
2022-07-29T18:25:25.816Z,99539.41
2022-07-29T18:28:00.640Z,99551.84
2022-07-29T18:30:33.903Z,99548.72
2022-07-29T18:33:24.292Z,99549.47
2022-07-29T18:36:04.227Z,99556.19
2022-07-29T18:38:41.850Z,99568.69
2022-07-29T18:41:12.035Z,99562.13
2022-07-29T18:43:45.612Z,99563.72
2022-07-29T18:46:15.801Z,99565.88
2022-07-29T18:48:46.072Z,99579.72
2022-07-29T18:51:16.246Z,99575.84
2022-07-29T18:53:46.616Z,99571.16
2022-07-29T18:56:16.705Z,99579.00
2022-07-29T18:58:49.686Z,99595.75
2022-07-29T19:01:19.982Z,99601.59
2022-07-29T19:03:50.275Z,99608.81
2022-07-29T19:06:25.317Z,99616.63
2022-07-29T19:08:56.621Z,99616.88
2022-07-29T19:11:27.026Z,99609.19
2022-07-29T19:13:59.754Z,99606.88
2022-07-29T19:16:32.327Z,99607.94
2022-07-29T19:19:03.666Z,99603.38
2022-07-29T19:21:33.793Z,99608.81
2022-07-29T19:24:06.756Z,99617.91
2022-07-29T19:26:44.110Z,99620.09
2022-07-29T19:29:17.554Z,99617.25
2022-07-29T19:31:47.567Z,99620.38
2022-07-29T19:34:17.788Z,99608.72
2022-07-29T19:36:47.991Z,99599.00
2022-07-29T19:39:18.321Z,99606.59
2022-07-29T19:42:03.508Z,99612.06
2022-07-29T19:44:36.519Z,99614.09
2022-07-29T19:47:06.782Z,99604.75
2022-07-29T19:49:42.122Z,99602.66
2022-07-29T19:52:12.621Z,99599.50
2022-07-29T19:54:42.840Z,99602.06
2022-07-29T19:57:12.954Z,99599.69
2022-07-29T19:59:47.222Z,99586.69
2022-07-29T20:02:17.474Z,99594.47
2022-07-29T20:04:47.807Z,99596.50
2022-07-29T20:07:18.066Z,99597.44
2022-07-29T20:09:49.481Z,99598.50
2022-07-29T20:12:19.646Z,99588.75
2022-07-29T20:14:53.516Z,99603.69
2022-07-29T20:17:23.602Z,99603.38
2022-07-29T20:19:56.464Z,99603.75
2022-07-29T20:22:26.588Z,99605.16
2022-07-29T20:24:56.966Z,99608.81
2022-07-29T20:27:27.053Z,99603.28
2022-07-29T20:29:59.946Z,99598.22
2022-07-29T20:32:30.234Z,99590.47
2022-07-29T20:35:00.408Z,99600.94
2022-07-29T20:37:30.627Z,99603.53
2022-07-29T20:40:00.758Z,99599.06
2022-07-29T20:42:30.918Z,99612.72
2022-07-29T20:45:08.352Z,99602.59
2022-07-29T20:47:39.130Z,99604.16
2022-07-29T20:50:10.481Z,99610.84
2022-07-29T20:52:41.568Z,99612.59
2022-07-29T20:55:12.450Z,99611.28
2022-07-29T20:57:43.177Z,99633.75
2022-07-29T21:00:17.021Z,99631.47
2022-07-29T21:02:47.561Z,99635.81
2022-07-29T21:05:17.874Z,99642.06
2022-07-29T21:07:48.093Z,99638.34
2022-07-29T21:10:18.529Z,99628.75
2022-07-29T21:12:49.681Z,99631.09
2022-07-29T21:15:24.013Z,99627.03
2022-07-29T21:18:00.729Z,99627.25
2022-07-29T21:20:31.851Z,99625.38
2022-07-29T21:23:02.011Z,99629.00
2022-07-29T21:25:34.443Z,99631.34
2022-07-29T21:28:17.557Z,99638.25
2022-07-29T21:30:50.378Z,99638.34
2022-07-29T21:33:20.579Z,99637.28
2022-07-29T21:38:41.924Z,99665.06
2022-07-29T21:41:14.917Z,99663.31
2022-07-29T21:43:46.229Z,99660.59
2022-07-29T21:46:20.804Z,99664.47
2022-07-29T21:48:54.914Z,99674.44
2022-07-29T21:51:25.202Z,99681.88
2022-07-29T21:53:55.356Z,99680.56
2022-07-29T21:56:27.968Z,99693.53
2022-07-29T21:58:59.009Z,99688.53
2022-07-29T22:01:39.039Z,99699.94
2022-07-29T22:04:09.862Z,99715.78
2022-07-29T22:06:40.040Z,99715.78
2022-07-29T22:09:10.373Z,99717.63
2022-07-29T22:11:40.552Z,99722.06
2022-07-29T22:14:10.741Z,99734.63
2022-07-29T22:16:43.743Z,99723.16
2022-07-29T22:19:13.964Z,99731.91
2022-07-29T22:21:44.913Z,99740.69
2022-07-29T22:24:15.001Z,99733.94
2022-07-29T22:26:45.157Z,99744.38
2022-07-29T22:29:17.744Z,99747.84
2022-07-29T22:31:50.571Z,99746.47
2022-07-29T22:34:20.669Z,99740.44
2022-07-29T22:36:50.850Z,99737.09
2022-07-29T22:39:21.057Z,99736.47
2022-07-29T22:41:51.325Z,99732.75
2022-07-29T22:44:21.594Z,99723.81
2022-07-29T22:49:24.291Z,99716.59
2022-07-29T22:51:54.619Z,99720.19
2022-07-29T22:54:24.693Z,99708.47
2022-07-29T22:56:55.327Z,99713.97
2022-07-29T22:59:25.410Z,99716.91
2022-07-29T23:01:58.267Z,99705.50
2022-07-29T23:04:28.426Z,99705.66
2022-07-29T23:06:58.725Z,99702.69
2022-07-29T23:09:30.091Z,99694.31
2022-07-29T23:12:00.198Z,99689.31
2022-07-29T23:14:30.276Z,99682.22
2022-07-29T23:17:03.505Z,99686.81
2022-07-29T23:19:34.009Z,99676.63
2022-07-29T23:22:04.178Z,99662.31
2022-07-29T23:24:34.294Z,99670.13
2022-07-29T23:27:04.468Z,99666.97
2022-07-29T23:29:36.920Z,99649.50
2022-07-29T23:32:10.277Z,99651.38
2022-07-29T23:34:40.317Z,99643.00
2022-07-29T23:37:10.502Z,99653.41
2022-07-29T23:39:40.837Z,99649.94
2022-07-29T23:42:10.950Z,99645.06
2022-07-29T23:44:41.101Z,99636.22
2022-07-29T23:47:13.885Z,99620.25
2022-07-29T23:49:44.030Z,99613.16
2022-07-29T23:52:14.229Z,99617.50
2022-07-29T23:54:44.394Z,99619.75
2022-07-29T23:57:14.567Z,99612.09
2022-07-29T23:59:44.778Z,99609.41
